アイウン の空港の天気 - METARとTAF

アイウン/ハッサン空港 ( GMML / EUN ) - 西サハラ アイウン
飛行場実況気象(Metar)
観測時間05/28 23:00 CET (05/28 22:00 UTC)
風向・風速北北東 6m/s
視程7000m
天気現象
なし
気温20℃
湿度83%
気圧1016hPa
METARGMML 282200Z 02012KT 7000 NSC 20/17 Q1016 NOSIG
過去の天気等 Google飛行場航空写真 Wunderground天気予報

過去48時間のMETAR

飛行場予報(TAF)
発表時間: 5/28 18:00 CET (5/28 17:00 UTC)
予報対象時間: 28日19時 CET ~ 30日1時 CET
風向・風速北 9m/s
視程10km以上
なし
29日2時 CET から 確率 30% で
全天の8割程度の雲 雲底高度 300m
TAF GMML 281700Z 2818/2924 36017KT CAVOK
PROB30 2901/2909 BKN010